Time;durP1;ratioP1;P1;durP2;ratioP2;P2;SDS_P1;SDS_P2;PMS_P1;PMS_P2;Temp;Humidity;BMP_temperature;BMP_pressure;BME280_temperature;BME280_humidity;BME280_pressure;Samples;Min_cycle;Max_cycle;Signal;HPM_P1;HPM_P2
2023/12/30 00:00:07;;;;;;;8.55;7.75;;;;;;;;;;5090706;28;20032;-74
2023/12/30 00:02:33;;;;;;;6.20;5.68;;;;;;;;;;5109084;28;20510;-74
2023/12/30 00:05:00;;;;;;;5.95;5.35;;;;;;;;;;5057305;28;20115;-73
2023/12/30 00:07:26;;;;;;;8.30;7.50;;;;;;;;;;5090529;28;20112;-74
2023/12/30 00:09:52;;;;;;;6.40;5.88;;;;;;;;;;5090802;28;20028;-75
2023/12/30 00:12:18;;;;;;;5.50;5.03;;;;;;;;;;5090687;28;20393;-74
2023/12/30 00:14:44;;;;;;;7.78;7.18;;;;;;;;;;5090774;28;20035;-74
2023/12/30 00:17:11;;;;;;;5.53;5.03;;;;;;;;;;5108507;28;20036;-74
2023/12/30 00:19:42;;;;;;;6.22;5.75;;;;;;;;;;5108927;28;20572;-74
2023/12/30 00:22:09;;;;;;;8.77;8.07;;;;;;;;;;5108222;28;20057;-74
2023/12/30 00:24:35;;;;;;;7.40;6.70;;;;;;;;;;5108897;28;20046;-74
2023/12/30 00:27:01;;;;;;;6.03;5.53;;;;;;;;;;5073825;28;20035;-75
2023/12/30 00:29:27;;;;;;;6.07;5.47;;;;;;;;;;5090385;28;20522;-73
2023/12/30 00:31:53;;;;;;;6.20;5.80;;;;;;;;;;5093830;27;20542;-72
2023/12/30 00:34:20;;;;;;;5.60;5.10;;;;;;;;;;5110699;28;20129;-73
2023/12/30 00:36:46;;;;;;;7.18;6.53;;;;;;;;;;5094036;28;20035;-75
2023/12/30 00:39:12;;;;;;;5.95;5.47;;;;;;;;;;5128757;27;20039;-74
2023/12/30 00:41:39;;;;;;;2.63;2.47;;;;;;;;;;5094201;27;20027;-74
2023/12/30 00:44:05;;;;;;;7.03;6.43;;;;;;;;;;5110487;27;20035;-74
2023/12/30 00:46:31;;;;;;;6.60;6.03;;;;;;;;;;5094088;27;20478;-74
2023/12/30 00:48:57;;;;;;;5.30;4.80;;;;;;;;;;5110718;28;20060;-74
2023/12/30 00:51:23;;;;;;;5.25;4.85;;;;;;;;;;5093764;27;20073;-74
2023/12/30 00:53:49;;;;;;;5.28;4.88;;;;;;;;;;5110561;27;20070;-73
2023/12/30 00:56:14;;;;;;;6.93;6.43;;;;;;;;;;5108998;27;20050;-74
2023/12/30 00:58:40;;;;;;;6.15;5.65;;;;;;;;;;5110719;28;20055;-74
2023/12/30 01:01:07;;;;;;;4.53;4.22;;;;;;;;;;5110469;27;20035;-74
2023/12/30 01:03:33;;;;;;;6.20;5.13;;;;;;;;;;5110651;27;20039;-72
2023/12/30 01:05:59;;;;;;;5.10;4.72;;;;;;;;;;5110719;27;20027;-74
2023/12/30 01:08:25;;;;;;;6.32;5.82;;;;;;;;;;5093429;28;20145;-74
2023/12/30 01:10:51;;;;;;;4.75;4.45;;;;;;;;;;5128677;27;20584;-73
2023/12/30 01:13:17;;;;;;;6.35;5.75;;;;;;;;;;5110270;28;20499;-73
2023/12/30 01:15:43;;;;;;;4.97;4.55;;;;;;;;;;5128952;28;20042;-73
2023/12/30 01:18:09;;;;;;;6.47;5.40;;;;;;;;;;5110149;28;20071;-73
2023/12/30 01:20:35;;;;;;;4.80;4.22;;;;;;;;;;5128666;27;20115;-73
2023/12/30 01:23:01;;;;;;;5.35;4.95;;;;;;;;;;5110117;28;20035;-73
2023/12/30 01:25:27;;;;;;;5.72;4.13;;;;;;;;;;5093269;28;20088;-74
2023/12/30 01:27:53;;;;;;;4.82;4.45;;;;;;;;;;5110447;28;20609;-73
2023/12/30 01:30:19;;;;;;;5.13;4.72;;;;;;;;;;5109898;28;20053;-74
2023/12/30 01:32:45;;;;;;;5.85;5.45;;;;;;;;;;5094468;27;20074;-74
2023/12/30 01:35:11;;;;;;;3.28;3.08;;;;;;;;;;5132332;27;20507;-72
2023/12/30 01:37:37;;;;;;;4.10;3.78;;;;;;;;;;5113970;27;20129;-73
2023/12/30 01:40:03;;;;;;;6.82;6.30;;;;;;;;;;5132301;27;20039;-74
2023/12/30 01:42:32;;;;;;;7.45;6.85;;;;;;;;;;5132386;27;20062;-74
2023/12/30 01:44:58;;;;;;;6.63;6.13;;;;;;;;;;5114155;27;20418;-75
2023/12/30 01:47:24;;;;;;;5.70;5.30;;;;;;;;;;5096537;27;20568;-74
2023/12/30 01:49:51;;;;;;;5.93;5.43;;;;;;;;;;5132373;27;20059;-75
2023/12/30 01:52:17;;;;;;;5.38;4.97;;;;;;;;;;5113953;27;20431;-73
2023/12/30 01:54:44;;;;;;;5.28;4.88;;;;;;;;;;5132440;27;20118;-74
2023/12/30 01:57:10;;;;;;;3.75;3.53;;;;;;;;;;5096906;27;20057;-75
2023/12/30 01:59:36;;;;;;;6.03;5.53;;;;;;;;;;5114424;27;20039;-74
2023/12/30 02:02:02;;;;;;;2.95;2.75;;;;;;;;;;5125215;27;20100;-74
2023/12/30 02:04:30;;;;;;;7.72;7.13;;;;;;;;;;5135961;27;20077;-73
2023/12/30 02:06:55;;;;;;;6.47;5.97;;;;;;;;;;5121853;27;20067;-74
2023/12/30 02:09:21;;;;;;;6.30;5.78;;;;;;;;;;5113913;27;20065;-75
2023/12/30 02:11:47;;;;;;;5.70;5.20;;;;;;;;;;5113866;27;20031;-73
2023/12/30 02:14:26;;;;;;;3.72;3.42;;;;;;;;;;5096578;27;20050;-73
2023/12/30 02:16:53;;;;;;;5.38;4.97;;;;;;;;;;5096741;27;20092;-72
2023/12/30 02:19:39;;;;;;;3.22;3.03;;;;;;;;;;5102254;27;20035;-73
2023/12/30 02:22:05;;;;;;;6.50;6.00;;;;;;;;;;5096219;27;20035;-73
2023/12/30 02:24:31;;;;;;;5.30;4.90;;;;;;;;;;5095755;27;20023;-73
2023/12/30 02:26:58;;;;;;;6.63;6.03;;;;;;;;;;5096443;27;20039;-73
2023/12/30 02:29:23;;;;;;;6.88;6.28;;;;;;;;;;5112798;27;20507;-74
2023/12/30 02:31:49;;;;;;;6.30;5.80;;;;;;;;;;5131208;27;20035;-74
2023/12/30 02:34:17;;;;;;;6.88;6.22;;;;;;;;;;5095718;27;20042;-75
2023/12/30 02:36:46;;;;;;;6.93;5.32;;;;;;;;;;5095934;27;20023;-74
2023/12/30 02:39:12;;;;;;;10.27;6.40;;;;;;;;;;5112637;27;20094;-74
2023/12/30 02:41:38;;;;;;;5.43;5.00;;;;;;;;;;5079052;27;20027;-74
2023/12/30 02:44:04;;;;;;;6.75;6.18;;;;;;;;;;5112244;27;20506;-74
2023/12/30 02:46:30;;;;;;;10.75;8.25;;;;;;;;;;5130885;27;20027;-74
2023/12/30 02:48:57;;;;;;;9.27;7.28;;;;;;;;;;5112679;27;20039;-73
2023/12/30 02:51:24;;;;;;;9.63;7.95;;;;;;;;;;5095218;27;20458;-73
2023/12/30 02:53:50;;;;;;;7.82;7.03;;;;;;;;;;5130808;27;20135;-73
2023/12/30 02:56:19;;;;;;;8.57;7.80;;;;;;;;;;5130684;27;20118;-75
2023/12/30 02:58:47;;;;;;;6.72;5.45;;;;;;;;;;5095364;27;20065;-72
2023/12/30 03:01:13;;;;;;;5.75;5.32;;;;;;;;;;5095092;27;20133;-73
2023/12/30 03:03:39;;;;;;;11.43;8.40;;;;;;;;;;5112124;27;20039;-74
2023/12/30 03:06:05;;;;;;;6.72;5.97;;;;;;;;;;5095069;27;20524;-73
2023/12/30 03:08:31;;;;;;;4.80;4.40;;;;;;;;;;5130341;27;20039;-73
2023/12/30 03:10:57;;;;;;;7.43;6.65;;;;;;;;;;5111939;27;20038;-72
2023/12/30 03:13:23;;;;;;;4.15;3.85;;;;;;;;;;5111705;27;20039;-72
2023/12/30 03:15:49;;;;;;;7.47;6.88;;;;;;;;;;5095561;27;20072;-73
2023/12/30 03:18:16;;;;;;;5.57;5.18;;;;;;;;;;5095009;27;20039;-74
2023/12/30 03:20:42;;;;;;;5.22;4.88;;;;;;;;;;5095574;27;20032;-73
2023/12/30 03:23:07;;;;;;;3.63;3.42;;;;;;;;;;5078329;27;20236;-73
2023/12/30 03:25:33;;;;;;;5.22;4.82;;;;;;;;;;5077926;27;20477;-73
2023/12/30 03:27:59;;;;;;;5.10;4.80;;;;;;;;;;5095109;27;20115;-72
2023/12/30 03:30:25;;;;;;;3.53;3.33;;;;;;;;;;5112129;27;20080;-73
2023/12/30 03:32:51;;;;;;;4.20;3.90;;;;;;;;;;5078429;27;20130;-72
2023/12/30 03:35:18;;;;;;;3.25;2.85;;;;;;;;;;5099389;27;20038;-74
2023/12/30 03:37:44;;;;;;;2.72;2.53;;;;;;;;;;5114796;27;20422;-71
2023/12/30 03:40:10;;;;;;;3.35;3.15;;;;;;;;;;5132210;27;20046;-73
2023/12/30 03:42:36;;;;;;;3.03;2.85;;;;;;;;;;5098043;27;20026;-73
2023/12/30 03:45:04;;;;;;;3.30;3.10;;;;;;;;;;5113052;27;20081;-72
2023/12/30 03:47:30;;;;;;;4.45;3.97;;;;;;;;;;5111705;27;20027;-71
2023/12/30 03:49:56;;;;;;;2.53;2.42;;;;;;;;;;5129937;27;20038;-72
2023/12/30 03:52:22;;;;;;;3.33;3.13;;;;;;;;;;5129766;27;20035;-72
2023/12/30 03:54:48;;;;;;;3.38;3.17;;;;;;;;;;5111033;28;20499;-72
2023/12/30 03:57:14;;;;;;;4.60;4.20;;;;;;;;;;5111394;27;20103;-73
2023/12/30 03:59:40;;;;;;;3.42;3.22;;;;;;;;;;5094484;27;20507;-73
2023/12/30 04:02:06;;;;;;;3.60;3.40;;;;;;;;;;5110890;27;20031;-72
2023/12/30 04:04:31;;;;;;;2.85;2.22;;;;;;;;;;5095583;28;20039;-73
2023/12/30 04:07:00;;;;;;;3.58;2.55;;;;;;;;;;5110693;27;20407;-73
2023/12/30 04:09:26;;;;;;;4.40;4.10;;;;;;;;;;5093809;27;20027;-72
2023/12/30 04:11:52;;;;;;;3.40;3.20;;;;;;;;;;5111227;27;20035;-73
2023/12/30 04:14:18;;;;;;;4.60;4.20;;;;;;;;;;5102449;28;20532;-72
2023/12/30 04:16:44;;;;;;;4.38;4.07;;;;;;;;;;5090493;28;20031;-72
2023/12/30 04:19:09;;;;;;;2.95;1.75;;;;;;;;;;5108500;28;20399;-73
2023/12/30 04:21:35;;;;;;;3.97;3.72;;;;;;;;;;5073449;28;20032;-73
2023/12/30 04:24:01;;;;;;;2.60;2.50;;;;;;;;;;5091025;28;20066;-73
2023/12/30 04:26:27;;;;;;;3.00;2.80;;;;;;;;;;5109389;28;20032;-73
2023/12/30 04:28:53;;;;;;;4.40;4.10;;;;;;;;;;5090574;28;20472;-72
2023/12/30 04:31:19;;;;;;;3.30;3.10;;;;;;;;;;5108602;28;20051;-72
2023/12/30 04:33:45;;;;;;;2.58;2.42;;;;;;;;;;5090297;28;20099;-72
2023/12/30 04:36:11;;;;;;;3.40;3.20;;;;;;;;;;5090930;28;20621;-73
2023/12/30 04:38:40;;;;;;;2.97;2.78;;;;;;;;;;5108298;28;20035;-74
2023/12/30 04:41:06;;;;;;;3.65;3.35;;;;;;;;;;5090324;28;20040;-72
2023/12/30 04:43:31;;;;;;;3.22;2.95;;;;;;;;;;5090076;28;20491;-73
2023/12/30 04:45:57;;;;;;;3.20;3.00;;;;;;;;;;5090334;28;20043;-73
2023/12/30 04:48:23;;;;;;;2.72;2.53;;;;;;;;;;5090051;28;20419;-73
2023/12/30 04:50:49;;;;;;;3.75;3.55;;;;;;;;;;5073574;28;20114;-73
2023/12/30 04:53:15;;;;;;;3.25;3.05;;;;;;;;;;5090818;28;20024;-72
2023/12/30 04:55:41;;;;;;;2.58;2.47;;;;;;;;;;5079643;28;20024;-72
2023/12/30 04:58:07;;;;;;;3.15;2.97;;;;;;;;;;5130314;28;20039;-73
2023/12/30 05:00:33;;;;;;;2.40;2.30;;;;;;;;;;5105089;28;20049;-72
2023/12/30 05:02:59;;;;;;;3.17;3.00;;;;;;;;;;5114341;28;20490;-73
2023/12/30 05:05:25;;;;;;;2.95;2.85;;;;;;;;;;5090134;28;20047;-72
2023/12/30 05:07:51;;;;;;;3.20;3.00;;;;;;;;;;5112916;28;20455;-72
2023/12/30 05:10:17;;;;;;;3.15;2.85;;;;;;;;;;5095556;28;20043;-72
2023/12/30 05:12:44;;;;;;;3.22;3.03;;;;;;;;;;5094675;28;20108;-72
2023/12/30 05:15:12;;;;;;;3.45;3.25;;;;;;;;;;5094451;28;20487;-72
2023/12/30 05:17:38;;;;;;;2.78;2.60;;;;;;;;;;5094380;28;20040;-72
2023/12/30 05:20:07;;;;;;;2.88;2.67;;;;;;;;;;5112411;28;20050;-73
2023/12/30 05:22:33;;;;;;;4.97;3.30;;;;;;;;;;5094292;28;20503;-72
2023/12/30 05:24:59;;;;;;;3.20;3.00;;;;;;;;;;5093836;28;20080;-74
2023/12/30 05:27:25;;;;;;;2.60;2.50;;;;;;;;;;5093324;28;20055;-73
2023/12/30 05:29:51;;;;;;;2.40;2.30;;;;;;;;;;5093724;28;20557;-72
2023/12/30 05:32:17;;;;;;;2.85;2.70;;;;;;;;;;5112091;28;20124;-73
2023/12/30 05:34:43;;;;;;;2.13;2.03;;;;;;;;;;5111745;28;20106;-73
2023/12/30 05:37:10;;;;;;;3.25;3.05;;;;;;;;;;5112200;28;20024;-72
2023/12/30 05:39:36;;;;;;;2.72;2.53;;;;;;;;;;5093845;28;20088;-73
2023/12/30 05:42:02;;;;;;;2.47;2.38;;;;;;;;;;5093760;28;20117;-73
2023/12/30 05:44:28;;;;;;;2.80;2.65;;;;;;;;;;5111717;28;20568;-72
2023/12/30 05:46:54;;;;;;;2.10;2.00;;;;;;;;;;5093652;28;20036;-73
2023/12/30 05:49:19;;;;;;;3.20;3.00;;;;;;;;;;5111636;28;20040;-73
2023/12/30 05:51:45;;;;;;;1.55;1.55;;;;;;;;;;5093372;28;20035;-73
2023/12/30 05:54:11;;;;;;;2.85;2.65;;;;;;;;;;5111357;28;20087;-72
2023/12/30 05:56:37;;;;;;;2.05;1.95;;;;;;;;;;5111247;28;20066;-71
2023/12/30 05:59:03;;;;;;;2.42;2.33;;;;;;;;;;5092810;28;20491;-72
2023/12/30 06:01:29;;;;;;;2.40;2.20;;;;;;;;;;5111183;28;20039;-73
2023/12/30 06:03:55;;;;;;;2.80;2.70;;;;;;;;;;5076472;28;20467;-72
2023/12/30 06:06:20;;;;;;;3.00;2.80;;;;;;;;;;5093175;28;20761;-73
2023/12/30 06:08:46;;;;;;;3.15;2.95;;;;;;;;;;5075777;28;20116;-72
2023/12/30 06:11:12;;;;;;;2.70;2.50;;;;;;;;;;5111304;28;20693;-72
2023/12/30 06:13:40;;;;;;;3.60;3.40;;;;;;;;;;5092966;28;20046;-73
2023/12/30 06:16:10;;;;;;;3.17;2.97;;;;;;;;;;5093454;28;20494;-73
2023/12/30 06:18:36;;;;;;;3.35;3.00;;;;;;;;;;5075071;28;20923;-72
2023/12/30 06:21:04;;;;;;;3.33;3.13;;;;;;;;;;5111060;28;20028;-73
2023/12/30 06:23:31;;;;;;;2.78;2.67;;;;;;;;;;5092554;28;20043;-73
2023/12/30 06:25:57;;;;;;;3.35;3.15;;;;;;;;;;5111124;28;20038;-72
2023/12/30 06:28:26;;;;;;;3.38;3.03;;;;;;;;;;5075577;28;20036;-73
2023/12/30 06:30:52;;;;;;;3.42;3.22;;;;;;;;;;5093222;28;20100;-73
2023/12/30 06:33:19;;;;;;;2.70;2.55;;;;;;;;;;5093080;28;20048;-72
2023/12/30 06:35:45;;;;;;;2.55;2.45;;;;;;;;;;5092189;28;20066;-72
2023/12/30 06:38:11;;;;;;;3.60;3.40;;;;;;;;;;5094491;27;20028;-75
2023/12/30 06:40:37;;;;;;;3.50;2.40;;;;;;;;;;5112745;27;20073;-73
2023/12/30 06:43:03;;;;;;;2.58;2.42;;;;;;;;;;5131043;27;20207;-73
2023/12/30 06:45:29;;;;;;;3.10;2.90;;;;;;;;;;5129647;27;20553;-73
2023/12/30 06:47:55;;;;;;;3.05;2.85;;;;;;;;;;5131094;27;20530;-73
2023/12/30 06:50:22;;;;;;;3.78;1.77;;;;;;;;;;5078731;27;20039;-73
2023/12/30 06:52:48;;;;;;;2.90;2.78;;;;;;;;;;5112308;27;20033;-73
2023/12/30 06:55:14;;;;;;;2.88;2.67;;;;;;;;;;5112463;27;20031;-73
2023/12/30 06:57:41;;;;;;;2.53;2.33;;;;;;;;;;5093113;27;20036;-72
2023/12/30 07:00:07;;;;;;;2.47;2.30;;;;;;;;;;5130240;27;20045;-68
2023/12/30 07:02:33;;;;;;;2.20;2.08;;;;;;;;;;5130437;27;20117;-68
2023/12/30 07:04:59;;;;;;;2.40;2.30;;;;;;;;;;5126331;27;20043;-68
2023/12/30 07:07:25;;;;;;;1.45;1.45;;;;;;;;;;5130488;27;20019;-69
2023/12/30 07:09:51;;;;;;;2.78;1.95;;;;;;;;;;5122815;27;20110;-69
2023/12/30 07:12:17;;;;;;;1.75;1.65;;;;;;;;;;5116771;27;20035;-68
2023/12/30 07:14:43;;;;;;;1.80;1.80;;;;;;;;;;5129682;27;20097;-70
2023/12/30 07:17:08;;;;;;;1.25;1.25;;;;;;;;;;5129680;27;20122;-69
2023/12/30 07:19:34;;;;;;;2.17;2.08;;;;;;;;;;5108570;27;20050;-69
2023/12/30 07:22:00;;;;;;;2.45;1.58;;;;;;;;;;5125327;27;20031;-70
2023/12/30 07:24:26;;;;;;;1.50;1.40;;;;;;;;;;5104654;27;20027;-68
2023/12/30 07:26:52;;;;;;;1.00;1.00;;;;;;;;;;5129470;27;20031;-71
2023/12/30 07:29:18;;;;;;;1.80;1.70;;;;;;;;;;5124182;27;20055;-69
2023/12/30 07:31:44;;;;;;;1.90;1.80;;;;;;;;;;5119444;27;20354;-68
2023/12/30 07:34:10;;;;;;;2.58;1.80;;;;;;;;;;5107327;27;20034;-69
2023/12/30 07:36:37;;;;;;;1.33;1.33;;;;;;;;;;5124321;27;20031;-69
2023/12/30 07:39:03;;;;;;;2.80;2.38;;;;;;;;;;5117312;27;20079;-69
2023/12/30 07:41:32;;;;;;;1.42;1.42;;;;;;;;;;5118493;27;20733;-69
2023/12/30 07:43:58;;;;;;;2.33;2.20;;;;;;;;;;5123024;27;20031;-69
2023/12/30 07:46:25;;;;;;;1.20;1.20;;;;;;;;;;5120012;27;20023;-69
2023/12/30 07:48:51;;;;;;;1.80;1.80;;;;;;;;;;5110862;27;20574;-68
2023/12/30 07:51:17;;;;;;;1.83;1.73;;;;;;;;;;5121627;27;20032;-68
2023/12/30 07:53:42;;;;;;;1.13;1.13;;;;;;;;;;5117480;27;20031;-69
2023/12/30 07:56:08;;;;;;;1.23;1.23;;;;;;;;;;5102494;27;20562;-69
2023/12/30 07:58:34;;;;;;;0.98;0.95;;;;;;;;;;5106137;27;20050;-68
2023/12/30 08:01:00;;;;;;;1.33;1.33;;;;;;;;;;5102825;27;20530;-68
2023/12/30 08:03:26;;;;;;;1.20;1.20;;;;;;;;;;5127909;27;20494;-69
2023/12/30 08:05:52;;;;;;;1.67;1.67;;;;;;;;;;5110512;27;20548;-69
2023/12/30 08:08:19;;;;;;;1.10;1.10;;;;;;;;;;5118946;27;20088;-71
2023/12/30 08:10:45;;;;;;;1.38;1.38;;;;;;;;;;5122281;27;20027;-69
2023/12/30 08:13:11;;;;;;;1.40;1.40;;;;;;;;;;5124623;27;20059;-68
2023/12/30 08:15:36;;;;;;;1.70;1.60;;;;;;;;;;5110259;27;20058;-69
2023/12/30 08:18:02;;;;;;;1.10;1.10;;;;;;;;;;5120498;27;20047;-69
2023/12/30 08:20:28;;;;;;;1.00;1.00;;;;;;;;;;5129207;27;20149;-69
2023/12/30 08:22:54;;;;;;;0.95;0.95;;;;;;;;;;5110186;27;20019;-69
2023/12/30 08:25:20;;;;;;;1.50;1.50;;;;;;;;;;5128632;27;20506;-69
2023/12/30 08:27:46;;;;;;;1.60;1.50;;;;;;;;;;5123905;27;20035;-70
2023/12/30 08:30:12;;;;;;;1.52;1.50;;;;;;;;;;5108408;28;20110;-68
2023/12/30 08:32:38;;;;;;;1.45;1.40;;;;;;;;;;5108604;28;20142;-69
2023/12/30 08:35:07;;;;;;;1.10;1.10;;;;;;;;;;5108909;28;20134;-68
2023/12/30 08:37:33;;;;;;;1.90;1.80;;;;;;;;;;5115104;27;20626;-69
2023/12/30 08:40:00;;;;;;;1.48;1.45;;;;;;;;;;5123153;27;20109;-69
2023/12/30 08:42:34;;;;;;;1.45;1.45;;;;;;;;;;5107859;27;20118;-68
2023/12/30 08:45:00;;;;;;;1.80;1.70;;;;;;;;;;5118813;28;20106;-68
2023/12/30 08:47:28;;;;;;;1.35;1.35;;;;;;;;;;5086457;28;20035;-69
2023/12/30 08:49:54;;;;;;;0.98;0.98;;;;;;;;;;5082102;27;20042;-69
2023/12/30 08:52:20;;;;;;;1.13;1.13;;;;;;;;;;5118585;27;20044;-69
2023/12/30 08:54:46;;;;;;;1.20;1.20;;;;;;;;;;5084700;28;20038;-68
2023/12/30 08:57:12;;;;;;;1.23;1.23;;;;;;;;;;5091853;28;20160;-68
2023/12/30 08:59:38;;;;;;;1.50;1.50;;;;;;;;;;5123846;28;20057;-69
2023/12/30 09:02:05;;;;;;;1.50;1.50;;;;;;;;;;5125964;27;20117;-70
2023/12/30 09:04:32;;;;;;;1.52;1.52;;;;;;;;;;5122375;27;20077;-72
2023/12/30 09:06:58;;;;;;;1.63;1.52;;;;;;;;;;5126916;27;20055;-73
2023/12/30 09:09:24;;;;;;;1.73;1.63;;;;;;;;;;5125869;27;20506;-74
2023/12/30 09:11:50;;;;;;;2.22;2.03;;;;;;;;;;5127449;27;20027;-74
2023/12/30 09:14:16;;;;;;;1.90;1.80;;;;;;;;;;5127984;27;20037;-74
2023/12/30 09:16:42;;;;;;;1.73;1.67;;;;;;;;;;5116601;27;20506;-73
2023/12/30 09:19:08;;;;;;;2.13;2.03;;;;;;;;;;5116898;27;20096;-73
2023/12/30 09:21:34;;;;;;;2.20;2.10;;;;;;;;;;5126334;27;20023;-74
2023/12/30 09:24:00;;;;;;;2.13;2.03;;;;;;;;;;5126751;27;21616;-73
2023/12/30 09:26:26;;;;;;;1.75;1.73;;;;;;;;;;5123979;27;20035;-75
2023/12/30 09:28:52;;;;;;;1.98;1.88;;;;;;;;;;5124700;27;20043;-75
2023/12/30 09:31:20;;;;;;;1.88;1.83;;;;;;;;;;5126662;27;20031;-74
2023/12/30 09:33:49;;;;;;;2.10;2.00;;;;;;;;;;5123945;27;20051;-74
2023/12/30 09:36:18;;;;;;;1.98;1.88;;;;;;;;;;5115085;27;20122;-73
2023/12/30 09:38:44;;;;;;;2.20;2.10;;;;;;;;;;5127557;27;20046;-72
2023/12/30 09:41:10;;;;;;;2.40;1.95;;;;;;;;;;5127577;27;20027;-73
2023/12/30 09:43:36;;;;;;;1.92;1.85;;;;;;;;;;5127794;27;20073;-73
2023/12/30 09:46:02;;;;;;;1.85;1.80;;;;;;;;;;5123671;28;20517;-73
2023/12/30 09:48:27;;;;;;;2.20;2.10;;;;;;;;;;5092743;28;20027;-74
2023/12/30 09:50:53;;;;;;;2.50;2.40;;;;;;;;;;5126972;27;20051;-73
2023/12/30 09:53:22;;;;;;;2.60;2.40;;;;;;;;;;5124138;27;20031;-73
2023/12/30 09:55:49;;;;;;;2.70;2.60;;;;;;;;;;5093550;27;20035;-74
2023/12/30 09:58:15;;;;;;;1.25;1.25;;;;;;;;;;5113318;27;20061;-74
2023/12/30 10:00:42;;;;;;;2.47;2.38;;;;;;;;;;5131260;27;20066;-74
2023/12/30 10:03:09;;;;;;;1.70;1.60;;;;;;;;;;5131934;27;20146;-75
2023/12/30 10:05:35;;;;;;;3.17;2.40;;;;;;;;;;5132090;27;20084;-75
2023/12/30 10:08:03;;;;;;;1.42;1.42;;;;;;;;;;5133629;27;20350;-75
2023/12/30 10:10:46;;;;;;;3.03;2.90;;;;;;;;;;5137316;27;20041;-74
2023/12/30 10:13:12;;;;;;;1.73;1.63;;;;;;;;;;5136645;27;20039;-75
2023/12/30 10:15:41;;;;;;;3.30;3.08;;;;;;;;;;5119108;27;20023;-75
2023/12/30 10:18:08;;;;;;;2.92;2.05;;;;;;;;;;5138126;27;20122;-75
2023/12/30 10:20:37;;;;;;;2.97;2.78;;;;;;;;;;5132318;27;20109;-75
2023/12/30 10:23:03;;;;;;;2.22;2.13;;;;;;;;;;5132053;27;20499;-74
2023/12/30 10:25:29;;;;;;;2.85;2.75;;;;;;;;;;5131899;27;20023;-75
2023/12/30 10:27:55;;;;;;;1.92;1.92;;;;;;;;;;5113710;27;20043;-75
2023/12/30 10:30:21;;;;;;;3.58;3.28;;;;;;;;;;5131874;27;20079;-75
2023/12/30 10:32:47;;;;;;;5.00;3.00;;;;;;;;;;5131260;27;20066;-74
2023/12/30 10:35:13;;;;;;;2.22;2.10;;;;;;;;;;5113234;27;20019;-74
2023/12/30 10:37:40;;;;;;;2.80;2.70;;;;;;;;;;5097038;27;20039;-74
2023/12/30 10:40:06;;;;;;;2.13;2.03;;;;;;;;;;5114706;27;20113;-74
2023/12/30 10:42:32;;;;;;;2.45;2.35;;;;;;;;;;5116139;27;20030;-74
2023/12/30 10:44:58;;;;;;;2.05;1.95;;;;;;;;;;5129848;27;20034;-75
2023/12/30 10:47:24;;;;;;;2.58;2.47;;;;;;;;;;5123031;27;20080;-74
2023/12/30 10:49:51;;;;;;;4.07;3.60;;;;;;;;;;5113033;27;20030;-74
2023/12/30 10:52:18;;;;;;;3.25;3.05;;;;;;;;;;5113552;27;20073;-75
2023/12/30 10:54:46;;;;;;;2.60;2.50;;;;;;;;;;5114191;27;20521;-74
2023/12/30 10:57:12;;;;;;;3.13;2.95;;;;;;;;;;5114891;27;20106;-74
2023/12/30 10:59:38;;;;;;;3.20;2.80;;;;;;;;;;5097161;27;20071;-74
2023/12/30 11:02:04;;;;;;;3.30;3.10;;;;;;;;;;5092188;28;20493;-75
2023/12/30 11:04:30;;;;;;;2.53;2.42;;;;;;;;;;5094343;28;20043;-75
2023/12/30 11:06:56;;;;;;;2.80;2.67;;;;;;;;;;5092185;28;20201;-74
2023/12/30 11:09:27;;;;;;;2.78;2.58;;;;;;;;;;5110334;28;20039;-74
2023/12/30 11:11:53;;;;;;;3.00;2.80;;;;;;;;;;5091930;28;20403;-74
2023/12/30 11:14:19;;;;;;;2.03;1.92;;;;;;;;;;5112622;27;20131;-75
2023/12/30 11:16:46;;;;;;;3.25;2.80;;;;;;;;;;5100268;28;20032;-74
2023/12/30 11:19:24;;;;;;;2.40;2.30;;;;;;;;;;5074748;28;20043;-74
2023/12/30 11:21:50;;;;;;;2.60;2.45;;;;;;;;;;5109688;28;20495;-74
2023/12/30 11:24:18;;;;;;;2.35;2.05;;;;;;;;;;5109831;28;20035;-73
2023/12/30 11:26:45;;;;;;;1.42;1.42;;;;;;;;;;5091625;28;20168;-74
2023/12/30 11:29:11;;;;;;;2.70;2.55;;;;;;;;;;5110016;28;20035;-73
2023/12/30 11:31:38;;;;;;;2.72;2.63;;;;;;;;;;5109697;28;20031;-74
2023/12/30 11:34:06;;;;;;;2.42;2.28;;;;;;;;;;5091198;28;20063;-74
2023/12/30 11:36:32;;;;;;;2.83;2.63;;;;;;;;;;5091110;28;20134;-75
2023/12/30 11:38:59;;;;;;;1.90;1.80;;;;;;;;;;5122857;27;20130;-74
2023/12/30 11:41:25;;;;;;;2.42;2.33;;;;;;;;;;5111397;27;20094;-74
2023/12/30 11:43:52;;;;;;;2.92;2.75;;;;;;;;;;5112142;27;20035;-74
2023/12/30 11:46:18;;;;;;;3.05;2.80;;;;;;;;;;5093615;27;20023;-74
2023/12/30 11:48:44;;;;;;;3.35;3.15;;;;;;;;;;5127992;27;20035;-74
2023/12/30 11:51:18;;;;;;;2.75;2.65;;;;;;;;;;5108418;27;20564;-75
2023/12/30 11:53:44;;;;;;;2.55;2.35;;;;;;;;;;5108683;27;20080;-74
2023/12/30 11:56:10;;;;;;;2.70;2.50;;;;;;;;;;5113875;27;20039;-74
2023/12/30 11:58:36;;;;;;;2.67;2.47;;;;;;;;;;5108437;27;20104;-74
2023/12/30 12:01:02;;;;;;;1.67;1.65;;;;;;;;;;5104319;27;20463;-73
2023/12/30 12:03:28;;;;;;;3.20;3.00;;;;;;;;;;5125339;27;20514;-75
2023/12/30 12:05:54;;;;;;;2.67;2.58;;;;;;;;;;5120078;27;20088;-75
2023/12/30 12:08:20;;;;;;;2.88;2.70;;;;;;;;;;5114590;27;20031;-75
2023/12/30 12:10:46;;;;;;;3.65;2.75;;;;;;;;;;5119705;27;20520;-75
2023/12/30 12:13:20;;;;;;;3.03;2.83;;;;;;;;;;5094632;27;20026;-75
2023/12/30 12:15:49;;;;;;;3.42;2.83;;;;;;;;;;5128813;27;20035;-75
2023/12/30 12:18:15;;;;;;;2.95;2.75;;;;;;;;;;5128665;27;20046;-75
2023/12/30 12:20:42;;;;;;;2.45;2.28;;;;;;;;;;5129072;27;20530;-75
2023/12/30 12:23:16;;;;;;;2.50;2.40;;;;;;;;;;5110478;27;20024;-73
2023/12/30 12:25:42;;;;;;;2.65;2.55;;;;;;;;;;5122088;27;20533;-77
2023/12/30 12:28:09;;;;;;;3.13;2.60;;;;;;;;;;5090253;28;20122;-76
2023/12/30 12:30:35;;;;;;;3.30;3.10;;;;;;;;;;5111761;27;20038;-77
2023/12/30 12:33:01;;;;;;;3.33;3.13;;;;;;;;;;5109784;28;20043;-78
2023/12/30 12:35:27;;;;;;;4.10;3.80;;;;;;;;;;5128535;27;20043;-76
2023/12/30 12:37:52;;;;;;;3.58;3.28;;;;;;;;;;5109829;27;20023;-75
2023/12/30 12:40:18;;;;;;;4.20;3.80;;;;;;;;;;5128328;27;20031;-75
2023/12/30 12:42:44;;;;;;;6.40;4.75;;;;;;;;;;5093015;28;20027;-75
2023/12/30 12:45:10;;;;;;;5.72;5.05;;;;;;;;;;5110424;28;20047;-75
2023/12/30 12:47:36;;;;;;;5.78;4.95;;;;;;;;;;5110689;28;20530;-75
2023/12/30 12:50:02;;;;;;;4.93;4.43;;;;;;;;;;5128783;28;20599;-74
2023/12/30 12:52:30;;;;;;;4.90;3.85;;;;;;;;;;5128419;27;20031;-75
2023/12/30 12:54:57;;;;;;;5.95;5.38;;;;;;;;;;5128555;28;20150;-76
2023/12/30 12:57:23;;;;;;;8.90;6.22;;;;;;;;;;5128672;28;20039;-74
2023/12/30 12:59:49;;;;;;;3.63;3.33;;;;;;;;;;5128360;28;20070;-74
2023/12/30 13:02:16;;;;;;;6.28;4.85;;;;;;;;;;5128368;28;20023;-74
2023/12/30 13:04:42;;;;;;;4.47;4.18;;;;;;;;;;5128413;28;20035;-74
2023/12/30 13:07:08;;;;;;;4.28;3.88;;;;;;;;;;5128396;27;20058;-74
2023/12/30 13:09:53;;;;;;;4.45;4.10;;;;;;;;;;5110461;27;20077;-74
2023/12/30 13:12:19;;;;;;;4.80;4.40;;;;;;;;;;5128862;27;20042;-74
2023/12/30 13:14:45;;;;;;;4.85;4.45;;;;;;;;;;5109975;28;20565;-74
2023/12/30 13:17:12;;;;;;;4.85;4.35;;;;;;;;;;5128505;28;20030;-75
2023/12/30 13:19:39;;;;;;;7.25;4.85;;;;;;;;;;5110369;28;20043;-75
2023/12/30 13:22:06;;;;;;;4.10;3.78;;;;;;;;;;5110200;28;20243;-74
2023/12/30 13:24:32;;;;;;;3.38;2.75;;;;;;;;;;5128262;27;20422;-74
2023/12/30 13:26:58;;;;;;;4.63;4.32;;;;;;;;;;5128349;27;20117;-75
2023/12/30 13:29:24;;;;;;;4.90;4.43;;;;;;;;;;5078255;28;20047;-74
2023/12/30 13:31:53;;;;;;;7.63;4.82;;;;;;;;;;5093859;28;20023;-75
2023/12/30 13:34:20;;;;;;;5.60;4.93;;;;;;;;;;5118124;27;20043;-75
2023/12/30 13:36:47;;;;;;;7.97;5.47;;;;;;;;;;5130015;28;20036;-74
2023/12/30 13:39:13;;;;;;;6.63;5.55;;;;;;;;;;5118352;28;20036;-74
2023/12/30 13:41:40;;;;;;;11.23;6.55;;;;;;;;;;5129151;27;20027;-75
2023/12/30 13:44:08;;;;;;;6.72;6.13;;;;;;;;;;5114712;27;20040;-74
2023/12/30 13:51:41;;;;;;;13.95;8.25;;;;;;;;;;5120770;27;20398;-74
2023/12/30 13:54:08;;;;;;;10.32;9.32;;;;;;;;;;5129788;27;20027;-74
2023/12/30 13:56:36;;;;;;;10.82;7.93;;;;;;;;;;5127478;27;20030;-76
2023/12/30 13:59:07;;;;;;;14.63;10.13;;;;;;;;;;5128682;27;20096;-75
2023/12/30 14:01:34;;;;;;;11.73;8.20;;;;;;;;;;5130272;27;20499;-75
2023/12/30 14:04:02;;;;;;;9.55;7.53;;;;;;;;;;5130729;27;20027;-75
2023/12/30 14:06:33;;;;;;;7.63;7.03;;;;;;;;;;5128579;27;20073;-74
2023/12/30 14:09:13;;;;;;;12.77;9.82;;;;;;;;;;5129084;27;20023;-74
2023/12/30 14:11:46;;;;;;;9.43;8.30;;;;;;;;;;5111745;27;20584;-74
2023/12/30 14:14:12;;;;;;;11.80;9.55;;;;;;;;;;5111888;27;20579;-73
2023/12/30 14:16:38;;;;;;;9.02;8.13;;;;;;;;;;5131305;27;20035;-74
2023/12/30 14:19:04;;;;;;;10.70;9.60;;;;;;;;;;5120614;27;20176;-76
2023/12/30 14:21:31;;;;;;;10.65;9.07;;;;;;;;;;5130796;27;20035;-73
2023/12/30 14:23:57;;;;;;;15.93;10.98;;;;;;;;;;5094530;27;20571;-74
2023/12/30 14:26:23;;;;;;;11.23;9.75;;;;;;;;;;5130827;27;20031;-74
2023/12/30 14:28:48;;;;;;;15.35;11.25;;;;;;;;;;5125172;27;20023;-72
2023/12/30 14:31:15;;;;;;;15.85;12.00;;;;;;;;;;5094010;27;20039;-73
2023/12/30 14:33:42;;;;;;;11.40;9.73;;;;;;;;;;5111657;27;20091;-73
2023/12/30 14:36:08;;;;;;;16.65;10.43;;;;;;;;;;5129276;27;20049;-74
2023/12/30 14:38:34;;;;;;;10.23;8.88;;;;;;;;;;5110943;27;20088;-74
2023/12/30 14:41:00;;;;;;;13.70;8.23;;;;;;;;;;5111107;22;20514;-73
2023/12/30 14:43:25;;;;;;;10.15;9.25;;;;;;;;;;5099226;28;20031;-74